Time;durP1;ratioP1;P1;durP2;ratioP2;P2;SDS_P1;SDS_P2;PMS_P1;PMS_P2;Temp;Humidity;BMP_temperature;BMP_pressure;BME280_temperature;BME280_humidity;BME280_pressure;Samples;Min_cycle;Max_cycle;Signal;HPM_P1;HPM_P2
2022/02/24 00:00:07;;;;;;;;;;;7.70;99.90;8.10;100089.00;;;;342916;28;90708;-88
2022/02/24 00:00:19;;;;;;;;;;;7.70;99.90;8.10;100084.00;;;;344265;28;88070;-88
2022/02/24 00:00:31;;;;;;;;;;;7.70;99.90;8.10;100086.00;;;;343041;28;88946;-88
2022/02/24 00:00:45;;;;;;;;;;;7.70;99.90;8.10;100080.00;;;;344477;28;88098;-88
2022/02/24 00:00:57;;;;;;;;;;;7.70;99.90;8.10;100076.00;;;;344822;28;90901;-88
2022/02/24 00:01:09;;;;;;;;;;;7.70;99.90;8.10;100087.00;;;;342637;28;88393;-88
2022/02/24 00:01:21;;;;;;;;;;;7.70;99.90;8.10;100079.00;;;;341654;28;88249;-88
2022/02/24 00:01:33;;;;;;;;;;;7.70;99.90;8.10;100084.00;;;;345429;28;88494;-88
2022/02/24 00:01:46;;;;;;;;;;;7.60;99.90;8.10;100084.00;;;;342614;28;91336;-88
2022/02/24 00:01:58;;;;;;;;;;;7.60;99.90;8.10;100075.00;;;;342583;28;87137;-88
2022/02/24 00:02:10;;;;;;;;;;;7.70;99.90;8.10;100079.00;;;;341792;28;87342;-88
2022/02/24 00:02:23;;;;;;;;;;;7.60;99.90;8.10;100085.00;;;;341558;28;86485;-88
2022/02/24 00:02:35;;;;;;;;;;;7.60;99.90;8.00;100080.00;;;;342897;28;89945;-88
2022/02/24 00:02:47;;;;;;;;;;;7.60;99.90;8.00;100079.00;;;;344104;28;87049;-88
2022/02/24 00:02:59;;;;;;;;;;;7.60;99.90;8.00;100083.00;;;;343078;28;87583;-88
2022/02/24 00:03:11;;;;;;;;;;;7.60;99.90;8.00;100080.00;;;;344161;28;87723;-88
2022/02/24 00:03:23;;;;;;;;;;;7.60;99.90;8.00;100075.00;;;;343081;28;90704;-88
2022/02/24 00:03:35;;;;;;;;;;;7.60;99.90;7.90;100077.00;;;;342844;28;86843;-87
2022/02/24 00:03:47;;;;;;;;;;;7.60;99.90;7.90;100079.00;;;;341554;28;88698;-88
2022/02/24 00:03:58;;;;;;;;;;;7.60;99.90;7.90;100084.00;;;;342292;28;87618;-89
2022/02/24 00:04:10;;;;;;;;;;;7.60;99.90;7.90;100080.00;;;;338851;28;87751;-88
2022/02/24 00:04:22;;;;;;;;;;;7.60;99.90;7.90;100085.00;;;;344016;28;87987;-88
2022/02/24 00:04:33;;;;;;;;;;;7.60;99.90;8.00;100078.00;;;;341648;28;89742;-88
2022/02/24 00:04:46;;;;;;;;;;;7.60;99.90;8.00;100079.00;;;;344171;28;86797;-88
2022/02/24 00:04:59;;;;;;;;;;;7.60;99.90;8.00;100078.00;;;;345873;28;91017;-88
2022/02/24 00:05:11;;;;;;;;;;;7.60;99.90;8.00;100078.00;;;;345804;28;86002;-88
2022/02/24 00:05:23;;;;;;;;;;;7.60;99.90;8.00;100080.00;;;;344067;28;89670;-88
2022/02/24 00:05:34;;;;;;;;;;;7.60;99.90;8.00;100084.00;;;;344133;28;86775;-88
2022/02/24 00:05:46;;;;;;;;;;;7.60;99.90;8.00;100081.00;;;;342862;28;88276;-88
2022/02/24 00:05:58;;;;;;;;;;;7.60;99.90;7.90;100077.00;;;;342762;28;86927;-87
2022/02/24 00:06:12;;;;;;;;;;;7.60;99.90;7.90;100074.00;;;;345724;28;89824;-88
2022/02/24 00:06:24;;;;;;;;;;;7.60;99.90;7.90;100086.00;;;;342762;28;87740;-88
2022/02/24 00:06:36;;;;;;;;;;;7.50;99.90;8.00;100080.00;;;;342710;28;90074;-88
2022/02/24 00:06:48;;;;;;;;;;;7.50;99.90;8.00;100089.00;;;;342000;28;88040;-88
2022/02/24 00:07:00;;;;;;;;;;;7.60;99.90;8.00;100084.00;;;;345564;28;89561;-88
2022/02/24 00:07:12;;;;;;;;;;;7.50;99.90;8.00;100081.00;;;;346766;28;86796;-89
2022/02/24 00:07:24;;;;;;;;;;;7.50;99.90;8.00;100082.00;;;;341646;28;90741;-88
2022/02/24 00:07:36;;;;;;;;;;;7.50;99.90;8.00;100076.00;;;;345559;28;86512;-88
2022/02/24 00:07:47;;;;;;;;;;;7.60;99.90;8.00;100085.00;;;;345529;28;91215;-88
2022/02/24 00:07:59;;;;;;;;;;;7.60;99.90;8.00;100079.00;;;;345342;28;87007;-88
2022/02/24 00:08:12;;;;;;;;;;;7.50;99.90;7.90;100073.00;;;;343161;28;88191;-88
2022/02/24 00:08:24;;;;;;;;;;;7.50;99.90;7.90;100070.00;;;;342798;28;87960;-89
2022/02/24 00:08:35;;;;;;;;;;;7.50;99.90;7.90;100081.00;;;;344386;28;87540;-88
2022/02/24 00:08:47;;;;;;;;;;;7.50;99.90;7.90;100083.00;;;;344117;28;86983;-88
2022/02/24 00:08:59;;;;;;;;;;;7.50;99.90;7.90;100081.00;;;;343036;28;90535;-88
2022/02/24 00:09:11;;;;;;;;;;;7.50;99.90;7.90;100075.00;;;;342450;28;86882;-88
2022/02/24 00:09:23;;;;;;;;;;;7.50;99.90;7.90;100079.00;;;;343047;28;88008;-88
2022/02/24 00:09:34;;;;;;;;;;;7.50;99.90;7.90;100084.00;;;;342781;28;88773;-88
2022/02/24 00:09:48;;;;;;;;;;;7.50;99.90;7.90;100075.00;;;;342860;28;90758;-88
2022/02/24 00:09:59;;;;;;;;;;;7.50;99.90;7.90;100078.00;;;;345436;28;86801;-88
2022/02/24 00:10:13;;;;;;;;;;;7.50;99.90;7.90;100075.00;;;;345787;28;90910;-88
2022/02/24 00:10:25;;;;;;;;;;;7.50;99.90;7.90;100068.00;;;;341442;28;88761;-88
2022/02/24 00:10:37;;;;;;;;;;;7.50;99.90;7.90;100081.00;;;;342762;28;89772;-88
2022/02/24 00:10:48;;;;;;;;;;;7.50;99.90;7.90;100079.00;;;;346909;27;87594;-88
2022/02/24 00:11:00;;;;;;;;;;;7.50;99.90;8.00;100083.00;;;;342989;28;90762;-88
2022/02/24 00:11:12;;;;;;;;;;;7.50;99.90;7.90;100073.00;;;;344044;28;87808;-88
2022/02/24 00:11:24;;;;;;;;;;;7.50;99.90;7.90;100081.00;;;;344300;28;91428;-88
2022/02/24 00:11:35;;;;;;;;;;;7.50;99.90;7.90;100076.00;;;;344052;28;88473;-88
2022/02/24 00:11:47;;;;;;;;;;;7.50;99.90;8.10;100080.00;;;;344369;28;88928;-88
2022/02/24 00:12:02;;;;;;;;;;;7.50;99.90;8.10;100085.00;;;;348319;27;86940;-88
2022/02/24 00:12:13;;;;;;;;;;;7.50;99.90;8.10;100080.00;;;;347027;28;90845;-88
2022/02/24 00:12:25;;;;;;;;;;;7.50;99.90;8.10;100079.00;;;;341538;28;87691;-88
2022/02/24 00:12:37;;;;;;;;;;;7.50;99.90;8.00;100083.00;;;;345718;28;89586;-88
2022/02/24 00:12:49;;;;;;;;;;;7.60;99.90;8.00;100088.00;;;;343648;28;86846;-88
2022/02/24 00:13:01;;;;;;;;;;;7.50;99.90;8.00;100076.00;;;;341562;28;90698;-88
2022/02/24 00:13:15;;;;;;;;;;;7.50;99.90;8.10;100084.00;;;;344080;28;86939;-88
2022/02/24 00:13:27;;;;;;;;;;;7.50;99.90;8.10;100079.00;;;;344412;28;90696;-87
2022/02/24 00:13:39;;;;;;;;;;;7.50;99.90;8.20;100076.00;;;;344153;28;88064;-88
2022/02/24 00:13:50;;;;;;;;;;;7.50;99.90;8.20;100081.00;;;;342664;28;86920;-88
2022/02/24 00:14:02;;;;;;;;;;;7.50;99.90;8.20;100078.00;;;;341402;28;87274;-88
2022/02/24 00:14:14;;;;;;;;;;;7.50;99.90;8.30;100079.00;;;;344487;28;88254;-88
2022/02/24 00:14:26;;;;;;;;;;;7.60;99.90;8.30;100077.00;;;;342909;28;87063;-88
2022/02/24 00:14:37;;;;;;;;;;;7.60;99.90;8.10;100079.00;;;;341573;28;88825;-88
2022/02/24 00:14:50;;;;;;;;;;;7.60;99.90;8.10;100066.00;;;;342758;28;87891;-88
2022/02/24 00:15:04;;;;;;;;;;;7.60;99.90;8.20;100076.00;;;;343009;28;89667;-88
2022/02/24 00:15:15;;;;;;;;;;;7.60;99.90;8.20;100074.00;;;;341464;28;88032;-88
2022/02/24 00:15:27;;;;;;;;;;;7.60;99.90;8.30;100080.00;;;;345898;28;90965;-88
2022/02/24 00:15:39;;;;;;;;;;;7.60;99.90;8.30;100088.00;;;;345502;28;88475;-88
2022/02/24 00:15:51;;;;;;;;;;;7.60;99.90;8.20;100079.00;;;;345210;28;90965;-88
2022/02/24 00:16:03;;;;;;;;;;;7.60;99.90;8.20;100078.00;;;;345340;28;87083;-88
2022/02/24 00:16:15;;;;;;;;;;;7.60;99.90;8.30;100073.00;;;;343171;28;88241;-88
2022/02/24 00:16:26;;;;;;;;;;;7.60;99.90;8.20;100077.00;;;;344282;28;86974;-88
2022/02/24 00:16:39;;;;;;;;;;;7.60;99.90;8.10;100080.00;;;;343966;28;90136;-88
2022/02/24 00:16:50;;;;;;;;;;;7.60;99.90;8.10;100080.00;;;;342256;28;86986;-88
2022/02/24 00:17:04;;;;;;;;;;;7.60;99.90;8.10;100079.00;;;;341599;28;90576;-88
2022/02/24 00:17:16;;;;;;;;;;;7.60;99.90;8.10;100085.00;;;;340153;28;86076;-88
2022/02/24 00:17:27;;;;;;;;;;;7.60;99.90;8.20;100081.00;;;;343119;28;90726;-88
2022/02/24 00:17:39;;;;;;;;;;;7.60;99.90;8.20;100066.00;;;;344265;28;86880;-88
2022/02/24 00:17:51;;;;;;;;;;;7.60;99.90;8.20;100080.00;;;;343020;28;88467;-88
2022/02/24 00:18:03;;;;;;;;;;;7.60;99.90;8.30;100080.00;;;;345451;28;87228;-88
2022/02/24 00:18:15;;;;;;;;;;;7.60;99.90;8.20;100079.00;;;;345703;28;91024;-88
2022/02/24 00:18:27;;;;;;;;;;;7.60;99.90;8.10;100084.00;;;;345627;28;86132;-88
2022/02/24 00:18:39;;;;;;;;;;;7.60;99.90;8.00;100074.00;;;;344220;28;88603;-88
2022/02/24 00:18:50;;;;;;;;;;;7.60;99.90;8.00;100079.00;;;;343430;28;87007;-88
2022/02/24 00:19:02;;;;;;;;;;;7.60;99.90;7.90;100070.00;;;;342910;28;90471;-88
2022/02/24 00:19:14;;;;;;;;;;;7.60;99.90;7.90;100079.00;;;;342567;28;86810;-88
2022/02/24 00:19:25;;;;;;;;;;;7.60;99.90;7.90;100080.00;;;;343039;28;90819;-88
2022/02/24 00:19:37;;;;;;;;;;;7.60;99.90;7.80;100076.00;;;;344088;28;87259;-89
2022/02/24 00:19:49;;;;;;;;;;;7.60;99.90;7.90;100066.00;;;;342886;28;91529;-88
2022/02/24 00:20:01;;;;;;;;;;;7.60;99.90;7.80;100079.00;;;;344234;28;86867;-88
2022/02/24 00:20:13;;;;;;;;;;;7.60;99.90;7.80;100078.00;;;;342727;28;91109;-88
2022/02/24 00:20:25;;;;;;;;;;;7.50;99.90;7.80;100078.00;;;;340013;28;89537;-88
2022/02/24 00:20:37;;;;;;;;;;;7.50;99.90;7.80;100079.00;;;;336310;28;86756;-87
2022/02/24 00:20:49;;;;;;;;;;;7.50;99.90;7.80;100081.00;;;;342609;28;88125;-87
2022/02/24 00:21:01;;;;;;;;;;;7.50;99.90;7.80;100079.00;;;;342962;28;87010;-87
2022/02/24 00:21:13;;;;;;;;;;;7.50;99.90;7.70;100080.00;;;;342741;28;88018;-87
2022/02/24 00:21:25;;;;;;;;;;;7.50;99.90;7.70;100076.00;;;;343101;28;89607;-88
2022/02/24 00:21:36;;;;;;;;;;;7.50;99.90;7.70;100081.00;;;;341513;28;86750;-88
2022/02/24 00:21:50;;;;;;;;;;;7.50;99.90;7.80;100086.00;;;;339732;28;90457;-87
2022/02/24 00:22:02;;;;;;;;;;;7.50;99.90;7.70;100080.00;;;;342456;28;88032;-88
2022/02/24 00:22:14;;;;;;;;;;;7.50;99.90;7.90;100075.00;;;;337514;28;88470;-88
2022/02/24 00:22:26;;;;;;;;;;;7.50;99.90;7.90;100067.00;;;;342890;28;87107;-88
2022/02/24 00:22:38;;;;;;;;;;;7.50;99.90;7.90;100076.00;;;;338787;28;89932;-87
2022/02/24 00:22:50;;;;;;;;;;;7.50;99.90;8.00;100077.00;;;;334935;29;87785;-88
2022/02/24 00:23:02;;;;;;;;;;;7.50;99.90;8.00;100077.00;;;;340367;28;89759;-88
2022/02/24 00:23:14;;;;;;;;;;;7.40;99.90;7.90;100075.00;;;;343956;28;86696;-87
2022/02/24 00:23:25;;;;;;;;;;;7.50;99.90;7.90;100068.00;;;;344315;28;88446;-88
2022/02/24 00:23:37;;;;;;;;;;;7.50;99.90;7.90;100083.00;;;;341386;28;88469;-87
2022/02/24 00:23:50;;;;;;;;;;;7.40;99.90;8.00;100079.00;;;;342707;28;90595;-88
2022/02/24 00:24:02;;;;;;;;;;;7.50;99.90;8.00;100068.00;;;;340027;28;88165;-87
2022/02/24 00:24:14;;;;;;;;;;;7.50;99.90;7.90;100068.00;;;;341672;28;91065;-88
2022/02/24 00:24:26;;;;;;;;;;;7.50;99.90;7.80;100073.00;;;;341509;28;86072;-88
2022/02/24 00:24:38;;;;;;;;;;;7.40;99.90;7.90;100061.00;;;;342794;28;89806;-87
2022/02/24 00:24:51;;;;;;;;;;;7.40;99.90;7.90;100063.00;;;;342392;28;87879;-88
2022/02/24 00:25:04;;;;;;;;;;;7.40;99.90;7.90;100075.00;;;;344297;28;90674;-87
2022/02/24 00:25:15;;;;;;;;;;;7.40;99.90;7.90;100065.00;;;;345097;28;86102;-88
2022/02/24 00:25:27;;;;;;;;;;;7.40;99.90;7.80;100076.00;;;;342718;28;88442;-86
2022/02/24 00:25:39;;;;;;;;;;;7.40;99.90;7.80;100069.00;;;;342685;28;85990;-87
2022/02/24 00:25:51;;;;;;;;;;;7.40;99.90;7.80;100069.00;;;;346769;28;90491;-87
2022/02/24 00:26:03;;;;;;;;;;;7.40;99.90;7.90;100078.00;;;;342785;28;88283;-88
2022/02/24 00:26:14;;;;;;;;;;;7.40;99.90;7.80;100073.00;;;;344378;28;90632;-88
2022/02/24 00:26:26;;;;;;;;;;;7.40;99.90;8.00;100070.00;;;;346915;28;87794;-88
2022/02/24 00:26:38;;;;;;;;;;;7.40;99.90;8.10;100061.00;;;;347335;28;89912;-87
2022/02/24 00:26:51;;;;;;;;;;;7.40;99.90;8.10;100062.00;;;;341754;28;88417;-87
2022/02/24 00:27:03;;;;;;;;;;;7.40;99.90;8.10;100057.00;;;;345792;28;91033;-88
2022/02/24 00:27:15;;;;;;;;;;;7.40;99.90;8.20;100064.00;;;;347188;28;85988;-88
2022/02/24 00:27:27;;;;;;;;;;;7.40;99.90;8.20;100068.00;;;;343350;28;89853;-88
2022/02/24 00:27:38;;;;;;;;;;;7.40;99.90;8.20;100057.00;;;;342694;28;87881;-88
2022/02/24 00:27:52;;;;;;;;;;;7.50;99.90;8.20;100062.00;;;;346376;28;90895;-88
2022/02/24 00:28:04;;;;;;;;;;;7.50;99.90;8.30;100056.00;;;;345676;28;87859;-88
2022/02/24 00:28:15;;;;;;;;;;;7.50;99.90;8.30;100058.00;;;;342425;28;89546;-88
2022/02/24 00:28:27;;;;;;;;;;;7.50;99.90;8.30;100065.00;;;;343083;28;86783;-87
2022/02/24 00:28:39;;;;;;;;;;;7.50;99.90;8.30;100060.00;;;;344554;28;90047;-88
2022/02/24 00:28:52;;;;;;;;;;;7.60;99.90;8.30;100060.00;;;;344242;28;87703;-87
2022/02/24 00:29:04;;;;;;;;;;;7.60;99.90;8.30;100062.00;;;;343291;28;87333;-87
2022/02/24 00:29:17;;;;;;;;;;;7.60;99.90;8.30;100056.00;;;;342936;28;88053;-87
2022/02/24 00:29:29;;;;;;;;;;;7.60;99.90;8.20;100057.00;;;;344519;28;91285;-88
2022/02/24 00:29:40;;;;;;;;;;;7.60;99.90;8.00;100060.00;;;;341770;28;86901;-87
2022/02/24 00:29:52;;;;;;;;;;;7.60;99.90;8.10;100058.00;;;;341517;28;91377;-87
2022/02/24 00:30:05;;;;;;;;;;;7.60;99.90;8.20;100058.00;;;;338636;28;87688;-88
2022/02/24 00:30:17;;;;;;;;;;;7.60;99.90;8.20;100057.00;;;;343288;28;90772;-88
2022/02/24 00:30:29;;;;;;;;;;;7.60;99.90;8.10;100057.00;;;;343038;28;88346;-88
2022/02/24 00:30:40;;;;;;;;;;;7.60;99.90;7.90;100058.00;;;;344292;28;86211;-87
2022/02/24 00:30:52;;;;;;;;;;;7.60;99.90;7.90;100061.00;;;;341480;28;87843;-88
2022/02/24 00:31:04;;;;;;;;;;;7.60;99.90;7.90;100060.00;;;;338911;28;90910;-87
2022/02/24 00:31:16;;;;;;;;;;;7.60;99.90;8.00;100064.00;;;;344286;28;87297;-88
2022/02/24 00:31:28;;;;;;;;;;;7.60;99.90;8.00;100061.00;;;;339308;28;91053;-87
2022/02/24 00:31:40;;;;;;;;;;;7.60;99.90;7.90;100063.00;;;;344307;28;86918;-87
2022/02/24 00:31:53;;;;;;;;;;;7.60;99.90;8.00;100055.00;;;;343252;28;91343;-87
2022/02/24 00:32:05;;;;;;;;;;;7.60;99.90;7.90;100061.00;;;;341493;28;87826;-87
2022/02/24 00:32:17;;;;;;;;;;;7.60;99.90;7.90;100057.00;;;;343286;28;91028;-88
2022/02/24 00:32:29;;;;;;;;;;;7.60;99.90;7.90;100068.00;;;;337585;28;86566;-87
2022/02/24 00:32:41;;;;;;;;;;;7.50;99.90;8.00;100063.00;;;;343203;28;89786;-88
2022/02/24 00:32:53;;;;;;;;;;;7.50;99.90;7.90;100060.00;;;;342818;28;87025;-87
2022/02/24 00:33:05;;;;;;;;;;;7.50;99.90;7.90;100062.00;;;;340595;28;90932;-87
2022/02/24 00:33:16;;;;;;;;;;;7.50;99.90;7.90;100058.00;;;;344109;28;87503;-88
2022/02/24 00:33:28;;;;;;;;;;;7.50;99.90;7.90;100057.00;;;;344685;28;89558;-87
2022/02/24 00:33:40;;;;;;;;;;;7.50;99.90;7.80;100065.00;;;;342783;28;88180;-87
2022/02/24 00:33:53;;;;;;;;;;;7.50;99.90;7.80;100066.00;;;;344986;28;90830;-87
2022/02/24 00:34:05;;;;;;;;;;;7.50;99.90;7.90;100054.00;;;;341568;28;86999;-88
2022/02/24 00:34:22;;;;;;;;;;;7.50;99.90;7.80;100069.00;;;;342378;28;91530;-87
2022/02/24 00:34:35;;;;;;;;;;;7.50;99.90;7.90;100058.00;;;;342975;28;88246;-88
2022/02/24 00:34:47;;;;;;;;;;;7.50;99.90;7.80;100052.00;;;;343238;28;88778;-87
2022/02/24 00:34:59;;;;;;;;;;;7.40;99.90;7.70;100065.00;;;;342815;28;88028;-88
2022/02/24 00:35:11;;;;;;;;;;;7.40;99.90;7.60;100053.00;;;;343326;28;88369;-87
2022/02/24 00:35:23;;;;;;;;;;;7.40;99.90;7.80;100052.00;;;;341587;28;88774;-87
2022/02/24 00:35:35;;;;;;;;;;;7.40;99.90;7.90;100059.00;;;;343086;28;88412;-88
2022/02/24 00:35:47;;;;;;;;;;;7.40;99.90;7.90;100062.00;;;;343083;28;86900;-88
2022/02/24 00:35:58;;;;;;;;;;;7.40;99.90;7.80;100059.00;;;;346941;28;45122;-88
2022/02/24 00:36:10;;;;;;;;;;;7.40;99.90;7.80;100061.00;;;;348197;28;11470;-87
2022/02/24 00:36:22;;;;;;;;;;;7.40;99.90;7.90;100064.00;;;;345401;28;12514;-88
2022/02/24 00:36:34;;;;;;;;;;;7.40;99.90;8.00;100059.00;;;;348061;28;14242;-87
2022/02/24 00:36:45;;;;;;;;;;;7.40;99.90;8.00;100059.00;;;;344992;28;90262;-87
2022/02/24 00:36:57;;;;;;;;;;;7.40;99.90;8.00;100061.00;;;;344126;28;86822;-87
2022/02/24 00:37:09;;;;;;;;;;;7.50;99.90;8.10;100059.00;;;;342979;28;91280;-88
2022/02/24 00:37:21;;;;;;;;;;;7.40;99.90;7.90;100064.00;;;;341485;28;87956;-87
2022/02/24 00:37:32;;;;;;;;;;;7.40;99.90;7.80;100052.00;;;;343292;28;90815;-88
2022/02/24 00:37:44;;;;;;;;;;;7.40;99.90;7.70;100057.00;;;;342983;28;88417;-88
2022/02/24 00:37:56;;;;;;;;;;;7.40;99.90;7.70;100064.00;;;;341799;28;90670;-87
2022/02/24 00:38:08;;;;;;;;;;;7.40;99.90;7.60;100053.00;;;;345768;28;86639;-87
2022/02/24 00:38:20;;;;;;;;;;;7.40;99.90;7.60;100050.00;;;;345693;28;90839;-88
2022/02/24 00:38:32;;;;;;;;;;;7.40;99.90;7.50;100055.00;;;;345746;28;87771;-87
2022/02/24 00:38:44;;;;;;;;;;;7.40;99.90;7.50;100058.00;;;;344513;28;87552;-87
2022/02/24 00:38:56;;;;;;;;;;;7.40;99.90;7.50;100057.00;;;;345697;28;87943;-87
2022/02/24 00:39:08;;;;;;;;;;;7.30;99.90;7.60;100057.00;;;;343195;28;89688;-87
2022/02/24 00:39:20;;;;;;;;;;;7.30;99.90;7.60;100048.00;;;;346998;28;88218;-88
2022/02/24 00:39:32;;;;;;;;;;;7.30;99.90;7.60;100050.00;;;;344439;28;91422;-88
2022/02/24 00:39:43;;;;;;;;;;;7.30;99.90;7.60;100056.00;;;;341399;28;86066;-88
2022/02/24 00:39:55;;;;;;;;;;;7.30;99.90;7.60;100058.00;;;;342997;28;91024;-88
2022/02/24 00:40:08;;;;;;;;;;;7.30;99.90;7.60;100064.00;;;;342941;28;86963;-88
2022/02/24 00:40:19;;;;;;;;;;;7.30;99.90;7.60;100056.00;;;;340181;28;87022;-88
2022/02/24 00:40:31;;;;;;;;;;;7.30;99.90;7.60;100057.00;;;;340343;28;87694;-88
2022/02/24 00:40:43;;;;;;;;;;;7.30;99.90;7.60;100055.00;;;;341879;28;90019;-87
2022/02/24 00:40:55;;;;;;;;;;;7.30;99.90;7.60;100056.00;;;;345702;28;87071;-88
2022/02/24 00:41:06;;;;;;;;;;;7.20;99.90;7.60;100052.00;;;;344445;28;90674;-87
2022/02/24 00:41:18;;;;;;;;;;;7.30;99.90;7.60;100061.00;;;;343914;28;87140;-87
2022/02/24 00:41:30;;;;;;;;;;;7.20;99.90;7.60;100057.00;;;;344534;28;90805;-88
2022/02/24 00:41:42;;;;;;;;;;;7.20;99.90;7.60;100052.00;;;;345756;28;87971;-87
2022/02/24 00:41:56;;;;;;;;;;;7.20;99.90;7.60;100063.00;;;;341799;28;91115;-87
2022/02/24 00:42:07;;;;;;;;;;;7.20;99.90;7.60;100064.00;;;;345691;28;88510;-88
2022/02/24 00:42:19;;;;;;;;;;;7.20;99.90;7.70;100063.00;;;;344605;28;89590;-87
2022/02/24 00:42:31;;;;;;;;;;;7.20;99.90;7.70;100056.00;;;;342987;28;87015;-87
2022/02/24 00:42:43;;;;;;;;;;;7.20;99.90;7.60;100056.00;;;;342661;28;90630;-87
2022/02/24 00:42:55;;;;;;;;;;;7.20;99.90;7.60;100055.00;;;;345717;28;87966;-87
2022/02/24 00:43:06;;;;;;;;;;;7.20;99.90;7.60;100055.00;;;;344544;28;90968;-87
2022/02/24 00:43:18;;;;;;;;;;;7.20;99.90;7.60;100052.00;;;;343186;28;87388;-88
2022/02/24 00:43:30;;;;;;;;;;;7.20;99.90;7.60;100062.00;;;;340631;28;89440;-88
2022/02/24 00:43:42;;;;;;;;;;;7.20;99.90;7.60;100056.00;;;;343091;28;86844;-87
2022/02/24 00:43:56;;;;;;;;;;;7.20;99.90;7.60;100062.00;;;;344513;28;90788;-88
2022/02/24 00:44:07;;;;;;;;;;;7.20;99.90;7.60;100056.00;;;;344390;28;87187;-87
2022/02/24 00:44:19;;;;;;;;;;;7.20;99.90;7.70;100057.00;;;;344676;28;90900;-88
2022/02/24 00:44:31;;;;;;;;;;;7.20;99.90;7.60;100049.00;;;;345600;28;88120;-87
2022/02/24 00:44:43;;;;;;;;;;;7.20;99.90;7.60;100057.00;;;;344615;28;90345;-87
2022/02/24 00:44:56;;;;;;;;;;;7.20;99.90;7.60;100051.00;;;;341734;28;86909;-88
2022/02/24 00:45:09;;;;;;;;;;;7.20;99.90;7.60;100054.00;;;;341943;28;88542;-87
2022/02/24 00:45:20;;;;;;;;;;;7.20;99.90;7.60;100052.00;;;;344034;28;87841;-87
2022/02/24 00:45:32;;;;;;;;;;;7.10;99.90;7.60;100056.00;;;;343257;28;89771;-88
2022/02/24 00:45:44;;;;;;;;;;;7.20;99.90;7.60;100062.00;;;;341232;28;87365;-88
2022/02/24 00:45:56;;;;;;;;;;;7.10;99.90;7.50;100057.00;;;;345448;28;90872;-88
2022/02/24 00:46:08;;;;;;;;;;;7.10;99.90;7.50;100057.00;;;;345864;28;85977;-88
2022/02/24 00:46:20;;;;;;;;;;;7.10;99.90;7.50;100056.00;;;;341806;28;89669;-88
2022/02/24 00:46:32;;;;;;;;;;;7.20;99.90;7.50;100055.00;;;;341828;28;85576;-88
2022/02/24 00:46:44;;;;;;;;;;;7.10;99.90;7.50;100055.00;;;;343178;28;87772;-87
2022/02/24 00:46:57;;;;;;;;;;;7.10;99.90;7.50;100065.00;;;;343201;28;86012;-87
2022/02/24 00:47:09;;;;;;;;;;;7.10;99.90;7.40;100045.00;;;;343225;28;90621;-88
2022/02/24 00:47:21;;;;;;;;;;;7.10;99.90;7.40;100052.00;;;;341622;28;86143;-87
2022/02/24 00:47:32;;;;;;;;;;;7.10;99.90;7.40;100055.00;;;;345988;28;90850;-87
2022/02/24 00:47:44;;;;;;;;;;;7.10;99.90;7.40;100053.00;;;;347084;28;87640;-88
2022/02/24 00:47:57;;;;;;;;;;;7.10;99.90;7.40;100057.00;;;;344622;28;89566;-88
2022/02/24 00:48:10;;;;;;;;;;;7.10;99.90;7.50;100059.00;;;;343029;28;87629;-87
2022/02/24 00:48:22;;;;;;;;;;;7.10;99.90;7.50;100056.00;;;;344420;28;90707;-87
2022/02/24 00:48:34;;;;;;;;;;;7.10;99.90;7.50;100061.00;;;;344258;28;87570;-88
2022/02/24 00:48:45;;;;;;;;;;;7.10;99.90;7.50;100062.00;;;;344019;28;90370;-88
2022/02/24 00:48:58;;;;;;;;;;;7.10;99.90;7.50;100054.00;;;;339605;28;88515;-87
2022/02/24 00:49:09;;;;;;;;;;;7.10;99.90;7.50;100061.00;;;;342993;28;90830;-87
2022/02/24 00:49:22;;;;;;;;;;;7.10;99.90;7.60;100060.00;;;;341716;28;86936;-88
2022/02/24 00:49:34;;;;;;;;;;;7.10;99.90;7.70;100063.00;;;;344505;28;89958;-87
2022/02/24 00:49:47;;;;;;;;;;;7.10;99.90;7.70;100061.00;;;;342943;28;87872;-87
2022/02/24 00:49:58;;;;;;;;;;;7.10;99.90;7.70;100056.00;;;;341650;28;89470;-88
2022/02/24 00:50:10;;;;;;;;;;;7.10;99.90;7.70;100055.00;;;;343038;28;88825;-87
2022/02/24 00:50:22;;;;;;;;;;;7.10;99.90;7.70;100053.00;;;;343258;28;90480;-87
2022/02/24 00:50:34;;;;;;;;;;;7.10;99.90;7.70;100052.00;;;;340098;28;87103;-88
2022/02/24 00:50:46;;;;;;;;;;;7.10;99.90;7.60;100049.00;;;;340553;28;87679;-87
2022/02/24 00:50:58;;;;;;;;;;;7.10;99.90;7.60;100058.00;;;;341658;28;87982;-87
2022/02/24 00:51:09;;;;;;;;;;;7.10;99.90;7.50;100059.00;;;;343303;28;88665;-87
2022/02/24 00:51:21;;;;;;;;;;;7.10;99.90;7.50;100053.00;;;;340148;28;87994;-87
2022/02/24 00:51:33;;;;;;;;;;;7.10;99.90;7.40;100059.00;;;;343214;28;90523;-88
2022/02/24 00:51:45;;;;;;;;;;;7.10;99.90;7.50;100057.00;;;;342191;28;87114;-88
2022/02/24 00:51:57;;;;;;;;;;;7.10;99.90;7.60;100063.00;;;;345436;28;90732;-88
2022/02/24 00:52:09;;;;;;;;;;;7.10;99.90;7.60;100054.00;;;;343016;28;87734;-87
2022/02/24 00:52:21;;;;;;;;;;;7.10;99.90;7.50;100057.00;;;;344651;28;88007;-88
2022/02/24 00:52:33;;;;;;;;;;;7.10;99.90;7.50;100053.00;;;;342924;28;86677;-87
2022/02/24 00:52:44;;;;;;;;;;;7.10;99.90;7.50;100059.00;;;;343160;28;90150;-88
2022/02/24 00:52:58;;;;;;;;;;;7.10;99.90;7.50;100062.00;;;;342814;28;86866;-88
2022/02/24 00:53:10;;;;;;;;;;;7.10;99.90;7.60;100059.00;;;;342970;28;91016;-87
2022/02/24 00:53:21;;;;;;;;;;;7.10;99.90;7.60;100057.00;;;;341527;28;86994;-87
2022/02/24 00:53:33;;;;;;;;;;;7.10;99.90;7.50;100055.00;;;;340375;28;90872;-88
2022/02/24 00:53:45;;;;;;;;;;;7.10;99.90;7.50;100061.00;;;;345732;28;87496;-87
2022/02/24 00:53:58;;;;;;;;;;;7.10;99.90;7.60;100056.00;;;;344375;28;90541;-87
2022/02/24 00:54:10;;;;;;;;;;;7.10;99.90;7.60;100048.00;;;;341792;28;86872;-88
2022/02/24 00:54:22;;;;;;;;;;;7.10;99.90;7.60;100057.00;;;;344311;28;90766;-87
2022/02/24 00:54:34;;;;;;;;;;;7.10;99.90;7.70;100065.00;;;;341590;28;87642;-87
2022/02/24 00:54:48;;;;;;;;;;;7.10;99.90;7.70;100057.00;;;;342941;28;90153;-87
2022/02/24 00:55:01;;;;;;;;;;;7.10;99.90;7.70;100059.00;;;;345502;28;88724;-87
2022/02/24 00:55:13;;;;;;;;;;;7.10;99.90;7.70;100052.00;;;;347339;27;88381;-87
2022/02/24 00:55:25;;;;;;;;;;;7.10;99.90;7.60;100057.00;;;;345725;28;87841;-88
2022/02/24 00:55:37;;;;;;;;;;;7.10;99.90;7.60;100065.00;;;;341983;28;88442;-87
2022/02/24 00:55:49;;;;;;;;;;;7.10;99.90;7.50;100060.00;;;;342904;28;87835;-87
2022/02/24 00:56:01;;;;;;;;;;;7.10;99.90;7.50;100056.00;;;;343148;28;91171;-87
2022/02/24 00:56:13;;;;;;;;;;;7.10;99.90;7.50;100066.00;;;;344365;28;86794;-87
2022/02/24 00:56:24;;;;;;;;;;;7.10;99.90;7.60;100062.00;;;;341706;28;89418;-88
2022/02/24 00:56:36;;;;;;;;;;;7.10;99.90;7.50;100057.00;;;;347003;28;87732;-88
2022/02/24 00:56:48;;;;;;;;;;;7.10;99.90;7.50;100061.00;;;;345913;28;89589;-88
2022/02/24 00:57:00;;;;;;;;;;;7.10;99.90;7.40;100057.00;;;;344298;28;87842;-88
2022/02/24 00:57:11;;;;;;;;;;;7.10;99.90;7.50;100057.00;;;;344402;28;89751;-87
2022/02/24 00:57:23;;;;;;;;;;;7.10;99.90;7.40;100056.00;;;;340093;28;86762;-88
2022/02/24 00:57:35;;;;;;;;;;;7.00;99.90;7.50;100054.00;;;;337647;28;90835;-87
2022/02/24 00:57:47;;;;;;;;;;;7.00;99.90;7.60;100057.00;;;;342916;28;87841;-88
2022/02/24 00:57:59;;;;;;;;;;;7.00;99.90;7.60;100052.00;;;;341736;28;90574;-88
2022/02/24 00:58:11;;;;;;;;;;;7.00;99.90;7.60;100058.00;;;;343040;28;86735;-88
2022/02/24 00:58:26;;;;;;;;;;;7.00;99.90;7.60;100051.00;;;;343160;28;90970;-88
2022/02/24 00:58:38;;;;;;;;;;;7.00;99.90;7.60;100052.00;;;;341566;28;86065;-88
2022/02/24 00:58:49;;;;;;;;;;;7.00;99.90;7.70;100051.00;;;;344047;28;90106;-88
2022/02/24 00:59:02;;;;;;;;;;;7.00;99.90;7.80;100057.00;;;;344386;28;87056;-87
2022/02/24 00:59:14;;;;;;;;;;;7.00;99.90;7.80;100058.00;;;;344268;28;90639;-87
2022/02/24 00:59:26;;;;;;;;;;;7.10;99.90;7.90;100056.00;;;;347057;28;87168;-87
2022/02/24 00:59:37;;;;;;;;;;;7.10;99.90;7.80;100061.00;;;;345924;28;88868;-87
2022/02/24 00:59:49;;;;;;;;;;;7.10;99.90;7.80;100061.00;;;;341686;28;86863;-87
2022/02/24 01:00:02;;;;;;;;;;;7.10;99.90;7.80;100068.00;;;;343243;28;89682;-88
2022/02/24 01:00:14;;;;;;;;;;;7.10;99.90;7.70;100069.00;;;;343037;28;87009;-87
2022/02/24 01:00:26;;;;;;;;;;;7.10;99.90;7.80;100062.00;;;;341936;28;89460;-87